createdAt,value
2023-01-03T00:02:04.494Z,65.12
2023-01-03T00:04:31.382Z,64.96
2023-01-03T00:06:57.885Z,64.94
2023-01-03T00:09:25.257Z,64.91
2023-01-03T00:12:12.427Z,65.08
2023-01-03T00:14:43.608Z,64.68
2023-01-03T00:17:11.602Z,65.27
2023-01-03T00:19:41.042Z,65.38
2023-01-03T00:22:08.325Z,65.17
2023-01-03T00:24:34.774Z,65.24
2023-01-03T00:27:01.410Z,65.40
2023-01-03T00:29:28.084Z,65.23
2023-01-03T00:31:54.543Z,65.57
2023-01-03T00:34:20.951Z,65.58
2023-01-03T00:36:47.316Z,65.14
2023-01-03T00:39:13.791Z,65.49
2023-01-03T00:41:40.844Z,65.30
2023-01-03T00:44:07.893Z,65.78
2023-01-03T00:46:34.860Z,65.30
2023-01-03T00:49:01.964Z,65.49
2023-01-03T00:51:31.611Z,65.26
2023-01-03T00:53:59.553Z,65.51
2023-01-03T00:56:30.491Z,65.73
2023-01-03T00:58:57.558Z,66.37
2023-01-03T01:01:28.199Z,66.20
2023-01-03T01:04:02.655Z,66.57
2023-01-03T01:06:31.325Z,66.50
2023-01-03T01:09:00.182Z,66.60
2023-01-03T01:11:27.886Z,66.46
2023-01-03T01:13:55.340Z,67.19
2023-01-03T01:16:25.036Z,66.88
2023-01-03T01:18:53.698Z,67.13
2023-01-03T01:21:27.166Z,67.27
2023-01-03T01:23:53.902Z,67.06
2023-01-03T01:26:23.580Z,67.22
2023-01-03T01:28:51.523Z,67.18
2023-01-03T01:31:20.385Z,67.54
2023-01-03T01:33:46.918Z,67.76
2023-01-03T01:36:23.300Z,67.64
2023-01-03T01:39:13.154Z,67.65
2023-01-03T01:41:58.990Z,67.66
2023-01-03T01:44:59.158Z,67.31
2023-01-03T01:47:34.197Z,67.05
2023-01-03T01:50:07.140Z,67.58
2023-01-03T01:52:37.054Z,68.01
2023-01-03T01:55:06.689Z,67.92
2023-01-03T01:57:35.844Z,67.88
2023-01-03T02:00:02.304Z,68.17
2023-01-03T02:02:28.806Z,68.06
2023-01-03T02:04:56.844Z,68.18
2023-01-03T02:07:23.555Z,68.04
2023-01-03T02:09:54.953Z,67.92
2023-01-03T02:13:02.573Z,67.95
2023-01-03T02:15:45.214Z,67.58
2023-01-03T02:18:33.464Z,67.51
2023-01-03T02:21:15.655Z,67.49
2023-01-03T02:24:06.976Z,67.74
2023-01-03T02:26:42.657Z,67.83
2023-01-03T02:29:20.271Z,67.54
2023-01-03T02:31:54.957Z,67.34
2023-01-03T02:34:34.491Z,67.41
2023-01-03T02:37:11.431Z,67.37
2023-01-03T02:40:11.894Z,67.38
2023-01-03T02:43:02.822Z,67.36
2023-01-03T02:46:07.000Z,67.21
2023-01-03T02:48:41.730Z,67.25
2023-01-03T02:51:16.969Z,66.70
2023-01-03T02:53:48.543Z,66.94
2023-01-03T02:56:23.177Z,66.97
2023-01-03T02:58:56.806Z,66.64
2023-01-03T03:01:25.054Z,66.91
2023-01-03T03:03:53.694Z,66.90
2023-01-03T03:06:29.473Z,66.98
2023-01-03T03:08:55.861Z,66.92
2023-01-03T03:11:41.909Z,67.07
2023-01-03T03:14:14.292Z,67.37
2023-01-03T03:16:48.432Z,67.14
2023-01-03T03:19:42.700Z,66.98
2023-01-03T03:22:40.671Z,66.79
2023-01-03T03:25:12.743Z,67.01
2023-01-03T03:28:00.973Z,66.81
2023-01-03T03:30:30.595Z,66.96
2023-01-03T03:33:01.626Z,67.09
2023-01-03T03:35:32.174Z,66.79
2023-01-03T03:38:02.590Z,66.56
2023-01-03T03:40:55.645Z,66.62
2023-01-03T03:43:47.557Z,66.85
2023-01-03T03:46:23.057Z,66.71
2023-01-03T03:49:27.347Z,66.53
2023-01-03T03:51:57.859Z,66.43
2023-01-03T03:54:26.175Z,66.48
2023-01-03T03:57:01.489Z,66.29
2023-01-03T03:59:31.105Z,65.87
2023-01-03T04:02:00.681Z,65.99
2023-01-03T04:04:35.858Z,65.51
2023-01-03T04:07:02.514Z,66.12
2023-01-03T04:09:29.316Z,66.45
2023-01-03T04:11:55.744Z,66.54
2023-01-03T04:14:22.201Z,66.36
2023-01-03T04:16:48.729Z,66.17
2023-01-03T04:19:15.182Z,66.18
2023-01-03T04:21:41.598Z,66.00
2023-01-03T04:24:08.436Z,65.89
2023-01-03T04:26:34.871Z,65.94
2023-01-03T04:29:01.233Z,66.02
2023-01-03T04:31:27.804Z,66.40
2023-01-03T04:33:54.235Z,66.24
2023-01-03T04:36:21.020Z,66.42
2023-01-03T04:38:47.653Z,66.64
2023-01-03T04:41:14.026Z,66.14
2023-01-03T04:43:59.275Z,66.57
2023-01-03T04:46:25.818Z,66.81
2023-01-03T04:48:52.307Z,67.52
2023-01-03T04:51:18.788Z,67.92
2023-01-03T04:53:45.204Z,67.75
2023-01-03T04:56:11.598Z,68.05
2023-01-03T04:58:38.588Z,67.85
2023-01-03T05:01:08.095Z,67.55
2023-01-03T05:03:35.457Z,67.29
2023-01-03T05:06:03.234Z,67.22
2023-01-03T05:08:29.955Z,67.13
2023-01-03T05:10:56.723Z,66.84
2023-01-03T05:13:23.369Z,66.62
2023-01-03T05:15:49.978Z,66.60
2023-01-03T05:18:16.585Z,66.93
2023-01-03T05:21:03.021Z,66.60
2023-01-03T05:23:48.222Z,66.62
2023-01-03T05:26:18.304Z,66.29
2023-01-03T05:28:49.277Z,66.85
2023-01-03T05:31:15.671Z,66.61
2023-01-03T05:33:42.229Z,67.12
2023-01-03T05:36:09.903Z,67.05
2023-01-03T05:38:37.350Z,67.23
2023-01-03T05:41:04.414Z,67.55
2023-01-03T05:43:30.816Z,67.21
2023-01-03T05:45:57.520Z,67.26
2023-01-03T05:48:23.965Z,67.43
2023-01-03T05:50:50.951Z,68.22
2023-01-03T05:53:18.054Z,68.54
2023-01-03T05:55:44.491Z,68.98
2023-01-03T05:58:12.491Z,69.19
2023-01-03T06:00:39.633Z,69.21
2023-01-03T06:03:06.383Z,69.48
2023-01-03T06:05:32.896Z,69.13
2023-01-03T06:08:01.640Z,69.19
2023-01-03T06:10:28.272Z,69.18
2023-01-03T06:12:54.840Z,69.39
2023-01-03T06:15:21.249Z,69.43
2023-01-03T06:18:02.116Z,69.45
2023-01-03T06:20:28.910Z,69.06
2023-01-03T06:22:55.830Z,69.29
2023-01-03T06:25:22.683Z,69.30
2023-01-03T06:27:49.284Z,69.43
2023-01-03T06:30:16.146Z,69.36
2023-01-03T06:32:43.793Z,69.69
2023-01-03T06:35:10.529Z,69.91
2023-01-03T06:37:36.914Z,69.47
2023-01-03T06:40:03.863Z,69.59
2023-01-03T06:42:44.817Z,69.77
2023-01-03T06:45:31.923Z,69.23
2023-01-03T06:48:17.814Z,69.57
2023-01-03T06:51:03.093Z,69.24
2023-01-03T06:53:34.864Z,69.07
2023-01-03T06:56:01.355Z,69.37
2023-01-03T06:58:28.007Z,68.80
2023-01-03T07:00:56.067Z,69.38
2023-01-03T07:03:23.037Z,69.25
2023-01-03T07:05:49.460Z,68.70
2023-01-03T07:08:15.987Z,68.83
2023-01-03T07:10:42.435Z,68.76
2023-01-03T07:13:27.498Z,67.85
2023-01-03T07:15:54.099Z,67.26
2023-01-03T07:18:20.779Z,66.88
2023-01-03T07:20:47.140Z,66.98
2023-01-03T07:23:13.799Z,66.67
2023-01-03T07:25:41.782Z,67.21
2023-01-03T07:28:13.385Z,67.56
2023-01-03T07:30:41.804Z,68.08
2023-01-03T07:33:09.952Z,68.12
2023-01-03T07:35:37.136Z,68.26
2023-01-03T07:38:05.376Z,68.71
2023-01-03T07:40:32.029Z,68.78
2023-01-03T07:43:17.062Z,68.81
2023-01-03T07:45:44.611Z,68.33
2023-01-03T07:48:12.865Z,68.57
2023-01-03T07:50:39.756Z,68.41
2023-01-03T07:53:08.211Z,68.29
2023-01-03T07:55:40.502Z,68.54
2023-01-03T07:58:06.851Z,68.52
2023-01-03T08:00:33.225Z,68.54
2023-01-03T08:02:59.632Z,68.26
2023-01-03T08:05:26.027Z,68.15
2023-01-03T08:07:52.891Z,68.29
2023-01-03T08:10:38.709Z,67.99
2023-01-03T08:13:17.459Z,68.10
2023-01-03T08:15:58.032Z,67.96
2023-01-03T08:18:26.631Z,67.75
2023-01-03T08:20:55.221Z,67.67
2023-01-03T08:23:25.233Z,67.57
2023-01-03T08:25:52.343Z,67.71
2023-01-03T08:28:18.698Z,67.28
2023-01-03T08:30:48.521Z,67.27
2023-01-03T08:33:17.310Z,67.54
2023-01-03T08:35:49.166Z,67.31
2023-01-03T08:38:21.503Z,67.24
2023-01-03T08:40:48.455Z,67.38
2023-01-03T08:43:15.686Z,67.32
2023-01-03T08:45:42.449Z,67.08
2023-01-03T08:48:10.438Z,66.97
2023-01-03T08:50:37.491Z,66.89
2023-01-03T08:53:05.678Z,66.85
2023-01-03T08:55:33.146Z,66.49
2023-01-03T08:58:00.109Z,66.61
2023-01-03T09:00:28.169Z,66.80
2023-01-03T09:02:57.740Z,66.83
2023-01-03T09:05:24.216Z,66.75
2023-01-03T09:07:50.634Z,66.44
2023-01-03T09:10:16.970Z,66.45
2023-01-03T09:12:43.362Z,66.66
2023-01-03T09:15:10.099Z,66.66
2023-01-03T09:17:36.509Z,66.74
2023-01-03T09:20:03.169Z,66.58
2023-01-03T09:22:29.515Z,66.85
2023-01-03T09:24:55.898Z,66.71
2023-01-03T09:27:22.308Z,66.67
2023-01-03T09:29:48.813Z,67.01
2023-01-03T09:32:15.226Z,66.83
2023-01-03T09:34:41.779Z,66.91
2023-01-03T09:37:08.116Z,67.24
2023-01-03T09:39:34.485Z,67.15
2023-01-03T09:42:19.906Z,67.18
2023-01-03T09:44:46.888Z,67.51
2023-01-03T09:47:20.543Z,67.34
2023-01-03T09:50:11.638Z,67.32
2023-01-03T09:52:52.787Z,67.60
2023-01-03T09:55:51.498Z,67.73
2023-01-03T09:58:36.997Z,67.54
2023-01-03T10:01:41.316Z,67.30
2023-01-03T10:04:29.480Z,67.59
2023-01-03T10:07:27.690Z,67.38
2023-01-03T10:10:14.636Z,67.83
2023-01-03T10:13:16.230Z,67.69
2023-01-03T10:15:57.671Z,68.10
2023-01-03T10:18:43.057Z,68.02
2023-01-03T10:21:15.604Z,67.87
2023-01-03T10:23:42.873Z,67.88
2023-01-03T10:26:11.367Z,67.85
2023-01-03T10:28:41.271Z,67.55
2023-01-03T10:31:25.940Z,67.29
2023-01-03T10:33:52.457Z,67.35
2023-01-03T10:36:20.994Z,67.16
2023-01-03T10:38:53.060Z,66.88
2023-01-03T10:41:45.861Z,66.76
2023-01-03T10:44:27.549Z,66.69
2023-01-03T10:46:56.618Z,66.69
2023-01-03T10:49:31.712Z,66.66
2023-01-03T10:52:12.257Z,66.59
2023-01-03T10:54:41.284Z,66.59
2023-01-03T10:57:07.950Z,66.54
2023-01-03T10:59:34.885Z,66.09
2023-01-03T11:02:15.612Z,66.17
2023-01-03T11:04:43.474Z,65.88
2023-01-03T11:07:11.559Z,65.35
2023-01-03T11:09:55.654Z,65.36
2023-01-03T11:12:36.810Z,65.37
2023-01-03T11:15:15.122Z,64.97
2023-01-03T11:17:59.936Z,64.92
2023-01-03T11:20:54.225Z,64.62
2023-01-03T11:23:48.725Z,64.71
2023-01-03T11:26:40.487Z,64.90
2023-01-03T11:29:35.833Z,64.89
2023-01-03T11:32:17.538Z,65.00
2023-01-03T11:35:22.810Z,65.03
2023-01-03T11:37:59.291Z,65.39
2023-01-03T11:40:39.725Z,65.48
2023-01-03T11:43:34.037Z,65.52
2023-01-03T11:46:21.740Z,65.20
2023-01-03T11:49:19.559Z,64.57
2023-01-03T11:52:03.751Z,64.16
2023-01-03T11:55:07.450Z,64.28
2023-01-03T11:58:06.199Z,64.09
2023-01-03T12:00:41.592Z,64.02
2023-01-03T12:03:30.356Z,63.92
2023-01-03T12:06:15.299Z,63.92
2023-01-03T12:08:48.555Z,63.81
2023-01-03T12:11:20.617Z,63.76
2023-01-03T12:14:13.693Z,63.92
2023-01-03T12:16:47.036Z,63.64
2023-01-03T12:19:41.787Z,63.74
2023-01-03T12:22:35.656Z,63.72
2023-01-03T12:25:18.754Z,63.42
2023-01-03T12:27:51.206Z,63.57
2023-01-03T12:30:31.346Z,63.62
2023-01-03T12:33:21.404Z,63.79
2023-01-03T12:36:15.791Z,63.81
2023-01-03T12:38:49.530Z,63.73
2023-01-03T12:41:22.013Z,63.92
2023-01-03T12:43:57.905Z,63.87
2023-01-03T12:46:28.658Z,63.99
2023-01-03T12:49:05.367Z,63.95
2023-01-03T12:51:31.882Z,63.87
2023-01-03T12:54:22.897Z,64.07
2023-01-03T12:57:24.256Z,64.22
2023-01-03T13:00:00.847Z,64.26
2023-01-03T13:02:54.826Z,64.52
2023-01-03T13:05:43.014Z,64.42
2023-01-03T13:08:38.965Z,64.56
2023-01-03T13:11:13.976Z,64.52
2023-01-03T13:13:49.463Z,64.47
2023-01-03T13:16:34.156Z,64.60
2023-01-03T13:19:22.413Z,64.60
2023-01-03T13:21:49.826Z,65.00
2023-01-03T13:24:38.855Z,64.86
2023-01-03T13:27:17.632Z,64.74
2023-01-03T13:29:54.245Z,64.62
2023-01-03T13:32:23.556Z,64.96
2023-01-03T13:34:59.074Z,64.70
2023-01-03T13:37:45.400Z,64.50
2023-01-03T13:40:17.005Z,64.76
2023-01-03T13:42:43.829Z,64.26
2023-01-03T13:45:17.382Z,64.52
2023-01-03T13:47:47.377Z,64.77
2023-01-03T13:50:28.129Z,64.82
2023-01-03T13:53:25.361Z,64.61
2023-01-03T13:56:17.687Z,64.67
2023-01-03T13:58:45.263Z,64.37
2023-01-03T14:01:45.646Z,64.31
2023-01-03T14:04:23.936Z,64.38
2023-01-03T14:07:01.691Z,64.20
2023-01-03T14:09:49.973Z,64.18
2023-01-03T14:12:33.768Z,63.99
2023-01-03T14:15:23.174Z,63.86
2023-01-03T14:17:59.744Z,63.90
2023-01-03T14:20:31.330Z,63.70
2023-01-03T14:23:17.167Z,63.71
2023-01-03T14:25:50.591Z,63.78
2023-01-03T14:28:29.921Z,63.76
2023-01-03T14:30:56.296Z,63.76
2023-01-03T14:33:25.287Z,63.68
2023-01-03T14:36:03.872Z,63.80
2023-01-03T14:38:32.318Z,63.64
2023-01-03T14:40:59.413Z,63.61
2023-01-03T14:43:27.387Z,63.50
2023-01-03T14:45:57.166Z,63.50
2023-01-03T14:48:24.844Z,63.53
2023-01-03T14:50:52.977Z,63.53
2023-01-03T14:53:20.339Z,63.68
2023-01-03T14:55:53.380Z,63.76
2023-01-03T14:58:34.222Z,63.69
2023-01-03T15:01:03.738Z,63.79
2023-01-03T15:03:39.553Z,63.72
2023-01-03T15:06:17.836Z,63.84
2023-01-03T15:08:45.637Z,63.72
2023-01-03T15:11:13.802Z,63.57
2023-01-03T15:13:55.419Z,63.73
2023-01-03T15:16:30.986Z,63.75
2023-01-03T15:19:22.509Z,63.77
2023-01-03T15:21:49.254Z,63.58
2023-01-03T15:24:15.524Z,63.52
2023-01-03T15:26:46.191Z,63.70
2023-01-03T15:29:23.643Z,64.04
2023-01-03T15:31:58.010Z,63.51
2023-01-03T15:34:30.543Z,63.54
2023-01-03T15:37:01.855Z,63.69
2023-01-03T15:39:49.802Z,63.31
2023-01-03T15:42:46.816Z,63.73
2023-01-03T15:45:24.237Z,63.55
2023-01-03T15:47:55.613Z,63.47
2023-01-03T15:50:24.187Z,63.68
2023-01-03T15:52:50.569Z,63.60
2023-01-03T15:55:17.601Z,63.53
2023-01-03T15:57:51.205Z,63.47
2023-01-03T16:00:20.986Z,63.32
2023-01-03T16:02:48.095Z,63.53
2023-01-03T16:05:21.621Z,63.45
2023-01-03T16:07:49.303Z,63.36
2023-01-03T16:10:15.892Z,63.11
2023-01-03T16:12:42.979Z,63.06
2023-01-03T16:15:18.858Z,63.12
2023-01-03T16:17:45.544Z,63.28
2023-01-03T16:20:16.413Z,62.76
2023-01-03T16:22:57.353Z,62.36
2023-01-03T16:25:26.628Z,62.62
2023-01-03T16:27:53.022Z,62.52
2023-01-03T16:30:19.390Z,62.59
2023-01-03T16:32:45.814Z,62.67
2023-01-03T16:35:16.475Z,62.84
2023-01-03T16:37:42.933Z,62.82
2023-01-03T16:40:20.957Z,62.64
2023-01-03T16:42:48.037Z,62.65
2023-01-03T16:45:15.151Z,62.46
2023-01-03T16:47:43.528Z,62.20
2023-01-03T16:50:18.213Z,62.22
2023-01-03T16:52:52.309Z,61.86
2023-01-03T16:55:27.143Z,61.58
2023-01-03T16:57:55.155Z,61.43
2023-01-03T17:00:30.593Z,61.45
2023-01-03T17:03:01.126Z,61.36
2023-01-03T17:05:36.042Z,61.70
2023-01-03T17:08:16.908Z,61.36
2023-01-03T17:10:46.780Z,61.60
2023-01-03T17:13:26.242Z,61.72
2023-01-03T17:15:53.577Z,61.35
2023-01-03T17:18:29.154Z,61.52
2023-01-03T17:20:59.914Z,61.78
2023-01-03T17:23:28.703Z,61.91
2023-01-03T17:25:56.246Z,61.97
2023-01-03T17:28:23.108Z,62.02
2023-01-03T17:30:51.159Z,61.92
2023-01-03T17:33:17.722Z,62.09
2023-01-03T17:35:45.697Z,62.20
2023-01-03T17:38:25.743Z,62.18
2023-01-03T17:40:55.124Z,62.46
2023-01-03T17:43:23.933Z,62.40
2023-01-03T17:46:22.489Z,62.45
2023-01-03T17:49:08.432Z,62.46
2023-01-03T17:51:35.011Z,62.44
2023-01-03T17:54:01.556Z,62.68
2023-01-03T17:56:29.425Z,62.46
2023-01-03T17:58:56.785Z,62.60
2023-01-03T18:01:24.073Z,63.19
2023-01-03T18:03:50.706Z,63.10
2023-01-03T18:06:23.776Z,63.21
2023-01-03T18:08:52.300Z,63.24
2023-01-03T18:11:26.758Z,63.32
2023-01-03T18:13:53.295Z,63.16
2023-01-03T18:16:22.339Z,63.13
2023-01-03T18:18:49.308Z,63.00
2023-01-03T18:21:21.444Z,62.95
2023-01-03T18:23:53.792Z,62.83
2023-01-03T18:26:20.272Z,62.90
2023-01-03T18:28:46.876Z,62.88
2023-01-03T18:31:18.608Z,63.13
2023-01-03T18:33:45.097Z,62.81
2023-01-03T18:36:29.079Z,62.85
2023-01-03T18:39:11.595Z,62.79
2023-01-03T18:41:38.080Z,62.91
2023-01-03T18:44:04.670Z,63.13
2023-01-03T18:46:31.164Z,63.08
2023-01-03T18:48:57.603Z,63.02
2023-01-03T18:51:27.122Z,63.24
2023-01-03T18:53:57.204Z,63.10
2023-01-03T18:56:30.153Z,63.21
2023-01-03T18:59:21.321Z,62.84
2023-01-03T19:01:48.108Z,63.00
2023-01-03T19:04:14.726Z,63.13
2023-01-03T19:06:45.387Z,63.19
2023-01-03T19:09:24.826Z,63.17
2023-01-03T19:11:53.705Z,62.94
2023-01-03T19:14:20.193Z,62.97
2023-01-03T19:16:46.851Z,62.74
2023-01-03T19:19:13.458Z,62.87
2023-01-03T19:21:46.301Z,62.87
2023-01-03T19:24:38.121Z,63.16
2023-01-03T19:27:34.504Z,63.01
2023-01-03T19:30:03.286Z,63.08
2023-01-03T19:32:30.194Z,62.97
2023-01-03T19:34:56.547Z,63.31
2023-01-03T19:37:23.728Z,63.01
2023-01-03T19:39:50.225Z,63.06
2023-01-03T19:42:38.759Z,63.24
2023-01-03T19:45:18.529Z,63.32
2023-01-03T19:47:45.007Z,63.19
2023-01-03T19:50:23.641Z,63.14
2023-01-03T19:52:50.121Z,63.35
2023-01-03T19:55:17.245Z,63.14
2023-01-03T19:57:48.919Z,63.11
2023-01-03T20:00:18.403Z,63.26
2023-01-03T20:02:45.720Z,63.18
2023-01-03T20:05:24.796Z,63.36
2023-01-03T20:07:52.161Z,63.54
2023-01-03T20:10:24.364Z,63.55
2023-01-03T20:12:53.967Z,63.60
2023-01-03T20:15:24.636Z,63.65
2023-01-03T20:17:52.715Z,63.24
2023-01-03T20:20:20.592Z,63.35
2023-01-03T20:23:05.903Z,63.29
2023-01-03T20:25:33.877Z,63.18
2023-01-03T20:28:01.597Z,62.95
2023-01-03T20:30:31.819Z,63.11
2023-01-03T20:32:58.276Z,63.13
2023-01-03T20:36:08.228Z,62.97
2023-01-03T20:38:16.604Z,63.00
2023-01-03T20:40:42.931Z,62.68
2023-01-03T20:43:14.548Z,62.74
2023-01-03T20:45:41.141Z,62.99
2023-01-03T20:48:19.263Z,62.76
2023-01-03T20:50:49.732Z,62.72
2023-01-03T20:53:22.068Z,62.80
2023-01-03T20:55:49.408Z,62.66
2023-01-03T20:58:17.810Z,62.38
2023-01-03T21:00:44.666Z,62.43
2023-01-03T21:03:11.590Z,62.10
2023-01-03T21:05:38.992Z,62.19
2023-01-03T21:08:25.159Z,61.95
2023-01-03T21:10:54.789Z,62.19
2023-01-03T21:13:21.963Z,61.97
2023-01-03T21:15:49.709Z,61.99
2023-01-03T21:18:16.970Z,62.15
2023-01-03T21:20:44.468Z,62.05
2023-01-03T21:23:16.359Z,61.88
2023-01-03T21:25:42.711Z,62.05
2023-01-03T21:28:10.822Z,61.77
2023-01-03T21:30:38.018Z,61.76
2023-01-03T21:33:04.970Z,62.17
2023-01-03T21:35:32.049Z,61.90
2023-01-03T21:37:58.385Z,61.88
2023-01-03T21:40:29.482Z,62.08
2023-01-03T21:43:04.217Z,61.93
2023-01-03T21:45:35.679Z,61.88
2023-01-03T21:48:04.292Z,62.04
2023-01-03T21:50:31.737Z,62.17
2023-01-03T21:52:58.500Z,62.03
2023-01-03T21:55:25.528Z,62.29
2023-01-03T21:57:52.105Z,62.19
2023-01-03T22:00:19.068Z,61.95
2023-01-03T22:03:04.916Z,62.31
2023-01-03T22:05:31.758Z,62.36
2023-01-03T22:07:59.130Z,62.44
2023-01-03T22:10:25.535Z,62.27
2023-01-03T22:12:55.165Z,62.36
2023-01-03T22:15:22.938Z,62.32
2023-01-03T22:17:49.292Z,62.25
2023-01-03T22:20:17.727Z,62.57
2023-01-03T22:22:45.254Z,62.44
2023-01-03T22:25:14.816Z,62.57
2023-01-03T22:27:42.557Z,62.37
2023-01-03T22:30:12.941Z,62.43
2023-01-03T22:32:39.407Z,62.31
2023-01-03T22:35:06.179Z,62.64
2023-01-03T22:37:32.537Z,62.52
2023-01-03T22:39:58.881Z,62.70
2023-01-03T22:42:25.283Z,62.36
2023-01-03T22:44:51.674Z,62.43
2023-01-03T22:47:18.107Z,62.66
2023-01-03T22:49:44.553Z,62.66
2023-01-03T22:52:10.879Z,62.48
2023-01-03T22:54:37.344Z,62.92
2023-01-03T22:57:03.838Z,62.55
2023-01-03T22:59:30.647Z,62.83
2023-01-03T23:01:58.480Z,62.44
2023-01-03T23:04:26.605Z,62.52
2023-01-03T23:06:53.805Z,63.06
2023-01-03T23:09:20.878Z,62.92
2023-01-03T23:12:05.824Z,62.76
2023-01-03T23:14:32.972Z,62.64
2023-01-03T23:17:19.958Z,63.05
2023-01-03T23:19:46.323Z,62.73
2023-01-03T23:22:12.716Z,62.72
2023-01-03T23:24:39.180Z,62.57
2023-01-03T23:27:05.827Z,62.86
2023-01-03T23:29:32.204Z,62.76
2023-01-03T23:31:58.601Z,62.91
2023-01-03T23:34:25.036Z,62.66
2023-01-03T23:36:51.381Z,62.94
2023-01-03T23:39:18.603Z,63.16
2023-01-03T23:41:45.993Z,63.31
2023-01-03T23:44:12.527Z,63.14
2023-01-03T23:46:39.071Z,62.89
2023-01-03T23:49:05.529Z,63.19
2023-01-03T23:51:32.034Z,63.31
2023-01-03T23:53:59.392Z,62.97
2023-01-03T23:56:25.798Z,62.92
2023-01-03T23:58:52.749Z,62.85
